sensor_id;sensor_type;location;lat;lon;timestamp;temperature;humidity
33815;DHT22;20121;51.910;8.406;2023-02-18T00:01:55;7.30;99.90
33815;DHT22;20121;51.910;8.406;2023-02-18T00:04:20;8.10;99.90
33815;DHT22;20121;51.910;8.406;2023-02-18T00:06:46;7.50;99.90
33815;DHT22;20121;51.910;8.406;2023-02-18T00:09:12;7.40;99.90
33815;DHT22;20121;51.910;8.406;2023-02-18T00:11:37;7.50;99.90
33815;DHT22;20121;51.910;8.406;2023-02-18T00:14:06;7.50;99.90
33815;DHT22;20121;51.910;8.406;2023-02-18T00:16:32;7.70;99.90
33815;DHT22;20121;51.910;8.406;2023-02-18T00:19:00;7.70;99.90
33815;DHT22;20121;51.910;8.406;2023-02-18T00:21:27;7.50;99.90
33815;DHT22;20121;51.910;8.406;2023-02-18T00:23:53;7.50;99.90
33815;DHT22;20121;51.910;8.406;2023-02-18T00:26:19;7.70;99.90
33815;DHT22;20121;51.910;8.406;2023-02-18T00:28:46;7.50;99.90
33815;DHT22;20121;51.910;8.406;2023-02-18T00:31:38;7.60;99.90
33815;DHT22;20121;51.910;8.406;2023-02-18T00:34:04;7.70;99.90
33815;DHT22;20121;51.910;8.406;2023-02-18T00:36:30;7.70;99.90
33815;DHT22;20121;51.910;8.406;2023-02-18T00:39:01;7.80;99.90
33815;DHT22;20121;51.910;8.406;2023-02-18T00:41:28;7.90;99.90
33815;DHT22;20121;51.910;8.406;2023-02-18T00:43:54;7.90;99.90
33815;DHT22;20121;51.910;8.406;2023-02-18T00:46:21;7.90;99.90
33815;DHT22;20121;51.910;8.406;2023-02-18T00:48:46;8.20;99.90
33815;DHT22;20121;51.910;8.406;2023-02-18T00:51:12;8.10;99.90
33815;DHT22;20121;51.910;8.406;2023-02-18T00:53:38;8.00;99.90
33815;DHT22;20121;51.910;8.406;2023-02-18T00:56:05;8.10;99.90
33815;DHT22;20121;51.910;8.406;2023-02-18T00:58:32;8.20;99.90
33815;DHT22;20121;51.910;8.406;2023-02-18T01:00:57;8.20;99.90
33815;DHT22;20121;51.910;8.406;2023-02-18T01:03:23;9.50;99.90
33815;DHT22;20121;51.910;8.406;2023-02-18T01:05:50;8.00;99.90
33815;DHT22;20121;51.910;8.406;2023-02-18T01:08:17;8.20;99.90
33815;DHT22;20121;51.910;8.406;2023-02-18T01:10:45;8.10;99.90
33815;DHT22;20121;51.910;8.406;2023-02-18T01:13:12;8.10;99.90
33815;DHT22;20121;51.910;8.406;2023-02-18T01:15:39;8.10;99.90
33815;DHT22;20121;51.910;8.406;2023-02-18T01:18:05;7.90;99.90
33815;DHT22;20121;51.910;8.406;2023-02-18T01:20:32;8.20;99.90
33815;DHT22;20121;51.910;8.406;2023-02-18T01:22:58;8.10;99.90
33815;DHT22;20121;51.910;8.406;2023-02-18T01:25:24;8.20;99.90
33815;DHT22;20121;51.910;8.406;2023-02-18T01:27:49;8.30;99.90
33815;DHT22;20121;51.910;8.406;2023-02-18T01:30:17;8.40;99.90
33815;DHT22;20121;51.910;8.406;2023-02-18T01:32:43;8.60;99.90
33815;DHT22;20121;51.910;8.406;2023-02-18T01:35:14;8.40;99.90
33815;DHT22;20121;51.910;8.406;2023-02-18T01:37:40;8.50;99.90
33815;DHT22;20121;51.910;8.406;2023-02-18T01:40:07;8.40;99.90
33815;DHT22;20121;51.910;8.406;2023-02-18T01:42:33;8.50;99.90
33815;DHT22;20121;51.910;8.406;2023-02-18T01:50:36;8.40;99.90
33815;DHT22;20121;51.910;8.406;2023-02-18T01:53:03;8.50;99.90
33815;DHT22;20121;51.910;8.406;2023-02-18T01:55:30;8.80;99.90
33815;DHT22;20121;51.910;8.406;2023-02-18T01:57:56;8.40;99.90
33815;DHT22;20121;51.910;8.406;2023-02-18T02:02:50;8.60;99.90
33815;DHT22;20121;51.910;8.406;2023-02-18T02:05:16;8.60;99.90
33815;DHT22;20121;51.910;8.406;2023-02-18T02:07:44;8.70;99.90
33815;DHT22;20121;51.910;8.406;2023-02-18T02:10:11;8.50;99.90
33815;DHT22;20121;51.910;8.406;2023-02-18T02:15:36;8.80;99.90
33815;DHT22;20121;51.910;8.406;2023-02-18T02:27:11;9.00;99.90
33815;DHT22;20121;51.910;8.406;2023-02-18T02:38:00;9.00;99.90
33815;DHT22;20121;51.910;8.406;2023-02-18T02:43:51;9.30;99.90
33815;DHT22;20121;51.910;8.406;2023-02-18T02:46:22;9.10;99.90
33815;DHT22;20121;51.910;8.406;2023-02-18T02:49:07;9.10;99.90
33815;DHT22;20121;51.910;8.406;2023-02-18T02:51:43;9.30;99.90
33815;DHT22;20121;51.910;8.406;2023-02-18T02:56:38;9.20;99.90
33815;DHT22;20121;51.910;8.406;2023-02-18T02:59:09;9.20;99.90
33815;DHT22;20121;51.910;8.406;2023-02-18T03:02:07;9.20;99.90
33815;DHT22;20121;51.910;8.406;2023-02-18T03:05:04;9.40;99.90
33815;DHT22;20121;51.910;8.406;2023-02-18T03:10:20;9.40;99.90
33815;DHT22;20121;51.910;8.406;2023-02-18T03:15:38;9.50;99.90
33815;DHT22;20121;51.910;8.406;2023-02-18T03:20:52;9.50;99.90
33815;DHT22;20121;51.910;8.406;2023-02-18T03:23:24;9.60;99.90
33815;DHT22;20121;51.910;8.406;2023-02-18T03:25:52;9.40;99.90
33815;DHT22;20121;51.910;8.406;2023-02-18T03:28:19;9.40;99.90
33815;DHT22;20121;51.910;8.406;2023-02-18T03:30:49;9.40;99.90
33815;DHT22;20121;51.910;8.406;2023-02-18T03:33:45;9.60;99.90
33815;DHT22;20121;51.910;8.406;2023-02-18T03:36:12;9.60;99.90
33815;DHT22;20121;51.910;8.406;2023-02-18T03:38:45;9.50;99.90
33815;DHT22;20121;51.910;8.406;2023-02-18T03:41:13;9.50;99.90
33815;DHT22;20121;51.910;8.406;2023-02-18T03:43:40;9.60;99.90
33815;DHT22;20121;51.910;8.406;2023-02-18T03:46:06;9.50;99.90
33815;DHT22;20121;51.910;8.406;2023-02-18T03:48:31;9.50;99.90
33815;DHT22;20121;51.910;8.406;2023-02-18T03:50:57;9.50;99.90
33815;DHT22;20121;51.910;8.406;2023-02-18T03:53:23;9.60;99.90
33815;DHT22;20121;51.910;8.406;2023-02-18T03:55:48;9.90;99.90
33815;DHT22;20121;51.910;8.406;2023-02-18T03:58:14;9.80;99.90
33815;DHT22;20121;51.910;8.406;2023-02-18T04:00:39;9.50;99.90
33815;DHT22;20121;51.910;8.406;2023-02-18T04:03:05;9.60;99.90
33815;DHT22;20121;51.910;8.406;2023-02-18T04:05:30;9.60;99.90
33815;DHT22;20121;51.910;8.406;2023-02-18T04:07:56;9.60;99.90
33815;DHT22;20121;51.910;8.406;2023-02-18T04:12:48;10.20;99.90
33815;DHT22;20121;51.910;8.406;2023-02-18T04:15:13;9.60;99.90
33815;DHT22;20121;51.910;8.406;2023-02-18T04:17:39;9.80;99.90
33815;DHT22;20121;51.910;8.406;2023-02-18T04:20:05;9.80;99.90
33815;DHT22;20121;51.910;8.406;2023-02-18T04:22:31;9.90;99.90
33815;DHT22;20121;51.910;8.406;2023-02-18T04:24:57;9.90;99.90
33815;DHT22;20121;51.910;8.406;2023-02-18T04:27:23;9.80;99.90
33815;DHT22;20121;51.910;8.406;2023-02-18T04:29:49;9.80;99.90
33815;DHT22;20121;51.910;8.406;2023-02-18T04:32:15;9.70;99.90
33815;DHT22;20121;51.910;8.406;2023-02-18T04:34:40;9.70;99.90
33815;DHT22;20121;51.910;8.406;2023-02-18T04:37:06;9.80;99.90
33815;DHT22;20121;51.910;8.406;2023-02-18T04:39:32;9.80;99.90
33815;DHT22;20121;51.910;8.406;2023-02-18T04:41:57;9.80;99.90
33815;DHT22;20121;51.910;8.406;2023-02-18T04:44:23;9.70;99.90
33815;DHT22;20121;51.910;8.406;2023-02-18T04:46:48;10.40;99.90
33815;DHT22;20121;51.910;8.406;2023-02-18T04:49:14;9.70;99.90
33815;DHT22;20121;51.910;8.406;2023-02-18T04:51:40;9.80;99.90
33815;DHT22;20121;51.910;8.406;2023-02-18T04:54:05;9.80;99.90
33815;DHT22;20121;51.910;8.406;2023-02-18T04:56:31;9.20;99.90
33815;DHT22;20121;51.910;8.406;2023-02-18T04:58:56;9.80;99.90
33815;DHT22;20121;51.910;8.406;2023-02-18T05:01:22;9.80;99.90
33815;DHT22;20121;51.910;8.406;2023-02-18T05:03:48;9.80;99.90
33815;DHT22;20121;51.910;8.406;2023-02-18T05:06:13;9.90;99.90
33815;DHT22;20121;51.910;8.406;2023-02-18T05:08:39;10.10;99.90
33815;DHT22;20121;51.910;8.406;2023-02-18T05:11:06;10.00;99.90
33815;DHT22;20121;51.910;8.406;2023-02-18T05:13:32;10.00;99.90
33815;DHT22;20121;51.910;8.406;2023-02-18T05:15:57;9.80;99.90
33815;DHT22;20121;51.910;8.406;2023-02-18T05:18:23;10.00;99.90
33815;DHT22;20121;51.910;8.406;2023-02-18T05:20:48;9.90;99.90
33815;DHT22;20121;51.910;8.406;2023-02-18T05:23:14;10.50;99.90
33815;DHT22;20121;51.910;8.406;2023-02-18T05:25:40;9.90;99.90
33815;DHT22;20121;51.910;8.406;2023-02-18T05:28:05;10.30;99.90
33815;DHT22;20121;51.910;8.406;2023-02-18T05:30:31;9.90;99.90
33815;DHT22;20121;51.910;8.406;2023-02-18T05:32:56;10.70;99.90
33815;DHT22;20121;51.910;8.406;2023-02-18T05:35:22;10.00;99.90
33815;DHT22;20121;51.910;8.406;2023-02-18T05:37:48;9.90;99.90
33815;DHT22;20121;51.910;8.406;2023-02-18T05:42:39;9.90;99.90
33815;DHT22;20121;51.910;8.406;2023-02-18T05:45:05;9.80;99.90
33815;DHT22;20121;51.910;8.406;2023-02-18T05:47:31;10.00;99.90
33815;DHT22;20121;51.910;8.406;2023-02-18T05:49:56;10.00;99.90
33815;DHT22;20121;51.910;8.406;2023-02-18T05:52:22;9.90;99.90
33815;DHT22;20121;51.910;8.406;2023-02-18T05:54:48;10.10;99.90
33815;DHT22;20121;51.910;8.406;2023-02-18T05:57:13;10.00;99.90
33815;DHT22;20121;51.910;8.406;2023-02-18T05:59:40;10.50;99.90
33815;DHT22;20121;51.910;8.406;2023-02-18T06:02:05;9.90;99.90
33815;DHT22;20121;51.910;8.406;2023-02-18T06:04:31;9.90;99.90
33815;DHT22;20121;51.910;8.406;2023-02-18T06:06:57;10.00;99.90
33815;DHT22;20121;51.910;8.406;2023-02-18T06:09:22;10.10;99.90
33815;DHT22;20121;51.910;8.406;2023-02-18T06:11:48;10.10;99.90
33815;DHT22;20121;51.910;8.406;2023-02-18T06:14:13;10.10;99.90
33815;DHT22;20121;51.910;8.406;2023-02-18T06:16:39;10.30;99.90
33815;DHT22;20121;51.910;8.406;2023-02-18T06:19:05;9.80;99.90
33815;DHT22;20121;51.910;8.406;2023-02-18T06:21:31;9.90;99.90
33815;DHT22;20121;51.910;8.406;2023-02-18T06:23:56;10.10;99.90
33815;DHT22;20121;51.910;8.406;2023-02-18T06:26:22;10.50;99.90
33815;DHT22;20121;51.910;8.406;2023-02-18T06:28:48;10.00;99.90
33815;DHT22;20121;51.910;8.406;2023-02-18T06:31:13;9.90;99.90
33815;DHT22;20121;51.910;8.406;2023-02-18T06:33:39;9.90;99.90
33815;DHT22;20121;51.910;8.406;2023-02-18T06:36:06;10.40;99.90
33815;DHT22;20121;51.910;8.406;2023-02-18T06:38:36;10.00;99.90
33815;DHT22;20121;51.910;8.406;2023-02-18T06:41:02;10.10;99.90
33815;DHT22;20121;51.910;8.406;2023-02-18T06:43:28;10.00;99.90
33815;DHT22;20121;51.910;8.406;2023-02-18T06:45:53;9.80;99.90
33815;DHT22;20121;51.910;8.406;2023-02-18T06:48:19;9.90;99.90
33815;DHT22;20121;51.910;8.406;2023-02-18T06:50:45;9.90;99.90
33815;DHT22;20121;51.910;8.406;2023-02-18T06:53:11;9.90;99.90
33815;DHT22;20121;51.910;8.406;2023-02-18T06:55:37;9.90;99.90
33815;DHT22;20121;51.910;8.406;2023-02-18T06:58:03;10.00;99.90
33815;DHT22;20121;51.910;8.406;2023-02-18T07:00:29;10.00;99.90
33815;DHT22;20121;51.910;8.406;2023-02-18T07:02:54;10.10;99.90
33815;DHT22;20121;51.910;8.406;2023-02-18T07:05:20;10.20;99.90
33815;DHT22;20121;51.910;8.406;2023-02-18T07:07:46;10.00;99.90
33815;DHT22;20121;51.910;8.406;2023-02-18T07:10:11;9.90;99.90
33815;DHT22;20121;51.910;8.406;2023-02-18T07:12:37;9.90;99.90
33815;DHT22;20121;51.910;8.406;2023-02-18T07:15:03;9.90;99.90
33815;DHT22;20121;51.910;8.406;2023-02-18T07:17:29;10.00;99.90
33815;DHT22;20121;51.910;8.406;2023-02-18T07:19:55;9.90;99.90
33815;DHT22;20121;51.910;8.406;2023-02-18T07:22:21;9.90;99.90
33815;DHT22;20121;51.910;8.406;2023-02-18T07:24:53;10.30;99.90
33815;DHT22;20121;51.910;8.406;2023-02-18T07:27:20;9.90;99.90
33815;DHT22;20121;51.910;8.406;2023-02-18T07:29:46;10.10;99.90
33815;DHT22;20121;51.910;8.406;2023-02-18T07:32:12;10.00;99.90
33815;DHT22;20121;51.910;8.406;2023-02-18T07:34:39;9.90;99.90
33815;DHT22;20121;51.910;8.406;2023-02-18T07:37:04;10.10;99.90
33815;DHT22;20121;51.910;8.406;2023-02-18T07:39:39;10.20;99.90
33815;DHT22;20121;51.910;8.406;2023-02-18T07:42:05;10.70;99.90
33815;DHT22;20121;51.910;8.406;2023-02-18T07:44:30;9.90;99.90
33815;DHT22;20121;51.910;8.406;2023-02-18T07:46:56;9.90;99.90
33815;DHT22;20121;51.910;8.406;2023-02-18T07:49:22;10.00;99.90
33815;DHT22;20121;51.910;8.406;2023-02-18T07:51:48;10.70;99.90
33815;DHT22;20121;51.910;8.406;2023-02-18T07:54:14;10.00;99.90
33815;DHT22;20121;51.910;8.406;2023-02-18T07:56:39;10.30;99.90
33815;DHT22;20121;51.910;8.406;2023-02-18T07:59:07;9.80;99.90
33815;DHT22;20121;51.910;8.406;2023-02-18T08:01:33;10.10;99.90
33815;DHT22;20121;51.910;8.406;2023-02-18T08:03:59;10.90;99.90
33815;DHT22;20121;51.910;8.406;2023-02-18T08:06:29;10.10;99.90
33815;DHT22;20121;51.910;8.406;2023-02-18T08:08:55;10.10;99.90
33815;DHT22;20121;51.910;8.406;2023-02-18T08:11:21;10.20;99.90
33815;DHT22;20121;51.910;8.406;2023-02-18T08:13:47;10.20;99.90
33815;DHT22;20121;51.910;8.406;2023-02-18T08:16:14;10.60;99.90
33815;DHT22;20121;51.910;8.406;2023-02-18T08:18:40;10.10;99.90
33815;DHT22;20121;51.910;8.406;2023-02-18T08:21:05;10.80;99.90
33815;DHT22;20121;51.910;8.406;2023-02-18T08:23:31;10.10;99.90
33815;DHT22;20121;51.910;8.406;2023-02-18T08:25:56;10.50;99.90
33815;DHT22;20121;51.910;8.406;2023-02-18T08:28:23;10.40;99.90
33815;DHT22;20121;51.910;8.406;2023-02-18T08:30:50;10.10;99.90
33815;DHT22;20121;51.910;8.406;2023-02-18T08:33:17;10.10;99.90
33815;DHT22;20121;51.910;8.406;2023-02-18T08:35:44;10.20;99.90
33815;DHT22;20121;51.910;8.406;2023-02-18T08:38:10;10.30;99.90
33815;DHT22;20121;51.910;8.406;2023-02-18T08:40:36;10.20;99.90
33815;DHT22;20121;51.910;8.406;2023-02-18T08:43:02;10.60;99.90
33815;DHT22;20121;51.910;8.406;2023-02-18T08:45:28;10.20;99.90
33815;DHT22;20121;51.910;8.406;2023-02-18T08:47:53;10.50;99.90
33815;DHT22;20121;51.910;8.406;2023-02-18T08:52:46;10.30;99.90
33815;DHT22;20121;51.910;8.406;2023-02-18T08:55:12;10.90;99.90
33815;DHT22;20121;51.910;8.406;2023-02-18T08:57:38;10.30;99.90
33815;DHT22;20121;51.910;8.406;2023-02-18T09:02:30;10.30;99.90
33815;DHT22;20121;51.910;8.406;2023-02-18T09:04:56;10.10;99.90
33815;DHT22;20121;51.910;8.406;2023-02-18T09:07:22;10.20;99.90
33815;DHT22;20121;51.910;8.406;2023-02-18T09:09:47;10.00;99.90
33815;DHT22;20121;51.910;8.406;2023-02-18T09:12:13;10.20;99.90
33815;DHT22;20121;51.910;8.406;2023-02-18T09:14:39;10.20;99.90
33815;DHT22;20121;51.910;8.406;2023-02-18T09:17:05;10.50;99.90
33815;DHT22;20121;51.910;8.406;2023-02-18T09:19:31;11.30;99.90
33815;DHT22;20121;51.910;8.406;2023-02-18T09:21:56;10.30;99.90
33815;DHT22;20121;51.910;8.406;2023-02-18T09:24:22;10.30;99.90
33815;DHT22;20121;51.910;8.406;2023-02-18T09:26:49;10.50;99.90
33815;DHT22;20121;51.910;8.406;2023-02-18T09:29:15;10.10;99.90
33815;DHT22;20121;51.910;8.406;2023-02-18T09:31:41;10.20;99.90
33815;DHT22;20121;51.910;8.406;2023-02-18T09:34:07;10.40;99.90
33815;DHT22;20121;51.910;8.406;2023-02-18T09:36:32;10.20;99.90
33815;DHT22;20121;51.910;8.406;2023-02-18T09:38:58;10.10;99.90
33815;DHT22;20121;51.910;8.406;2023-02-18T09:44:34;9.80;99.90
33815;DHT22;20121;51.910;8.406;2023-02-18T09:47:40;10.10;99.90
33815;DHT22;20121;51.910;8.406;2023-02-18T09:52:46;9.90;99.90
33815;DHT22;20121;51.910;8.406;2023-02-18T09:55:22;10.10;99.90
33815;DHT22;20121;51.910;8.406;2023-02-18T09:57:51;9.90;99.90
33815;DHT22;20121;51.910;8.406;2023-02-18T10:00:22;10.10;99.90
33815;DHT22;20121;51.910;8.406;2023-02-18T10:02:58;9.80;99.90
33815;DHT22;20121;51.910;8.406;2023-02-18T10:05:26;10.60;99.90
33815;DHT22;20121;51.910;8.406;2023-02-18T10:07:56;10.40;99.90
33815;DHT22;20121;51.910;8.406;2023-02-18T10:10:39;10.00;99.90
33815;DHT22;20121;51.910;8.406;2023-02-18T10:13:17;10.10;99.90
33815;DHT22;20121;51.910;8.406;2023-02-18T10:15:44;10.00;99.90
33815;DHT22;20121;51.910;8.406;2023-02-18T10:18:26;9.90;99.90
33815;DHT22;20121;51.910;8.406;2023-02-18T10:21:04;10.00;99.90
33815;DHT22;20121;51.910;8.406;2023-02-18T10:23:33;10.00;99.90
33815;DHT22;20121;51.910;8.406;2023-02-18T10:26:03;10.10;99.90
33815;DHT22;20121;51.910;8.406;2023-02-18T10:28:30;10.00;99.90
33815;DHT22;20121;51.910;8.406;2023-02-18T10:30:59;9.80;99.90
33815;DHT22;20121;51.910;8.406;2023-02-18T10:33:31;10.60;99.90
33815;DHT22;20121;51.910;8.406;2023-02-18T10:39:00;9.80;99.90
33815;DHT22;20121;51.910;8.406;2023-02-18T10:49:54;10.20;99.90
33815;DHT22;20121;51.910;8.406;2023-02-18T10:52:20;9.90;99.90
33815;DHT22;20121;51.910;8.406;2023-02-18T10:57:24;9.90;99.90
33815;DHT22;20121;51.910;8.406;2023-02-18T10:59:55;9.70;99.90
33815;DHT22;20121;51.910;8.406;2023-02-18T11:02:24;9.80;99.90
33815;DHT22;20121;51.910;8.406;2023-02-18T11:04:50;9.90;99.90
33815;DHT22;20121;51.910;8.406;2023-02-18T11:07:22;9.70;99.90
33815;DHT22;20121;51.910;8.406;2023-02-18T11:09:54;9.80;99.90
33815;DHT22;20121;51.910;8.406;2023-02-18T11:12:43;9.70;99.90
33815;DHT22;20121;51.910;8.406;2023-02-18T11:17:38;9.80;99.90
33815;DHT22;20121;51.910;8.406;2023-02-18T11:20:24;9.60;99.90
33815;DHT22;20121;51.910;8.406;2023-02-18T11:22:50;9.80;99.90
33815;DHT22;20121;51.910;8.406;2023-02-18T11:25:27;9.60;99.90
33815;DHT22;20121;51.910;8.406;2023-02-18T11:28:45;9.70;99.90
33815;DHT22;20121;51.910;8.406;2023-02-18T11:30:47;10.00;99.90
33815;DHT22;20121;51.910;8.406;2023-02-18T11:33:23;9.80;99.90
33815;DHT22;20121;51.910;8.406;2023-02-18T11:35:54;9.80;99.90
33815;DHT22;20121;51.910;8.406;2023-02-18T11:38:40;9.40;99.90
33815;DHT22;20121;51.910;8.406;2023-02-18T11:41:09;9.60;99.90
33815;DHT22;20121;51.910;8.406;2023-02-18T11:43:40;9.60;99.90
33815;DHT22;20121;51.910;8.406;2023-02-18T11:46:18;9.60;99.90
33815;DHT22;20121;51.910;8.406;2023-02-18T11:48:44;9.70;99.90
33815;DHT22;20121;51.910;8.406;2023-02-18T11:51:24;9.70;99.90
33815;DHT22;20121;51.910;8.406;2023-02-18T11:54:03;9.70;99.90
33815;DHT22;20121;51.910;8.406;2023-02-18T11:56:34;9.60;99.90
33815;DHT22;20121;51.910;8.406;2023-02-18T11:59:01;9.60;99.90
33815;DHT22;20121;51.910;8.406;2023-02-18T12:01:41;9.60;99.90
33815;DHT22;20121;51.910;8.406;2023-02-18T12:04:16;9.70;99.90
33815;DHT22;20121;51.910;8.406;2023-02-18T12:06:53;9.60;99.90
33815;DHT22;20121;51.910;8.406;2023-02-18T12:09:39;9.70;99.90
33815;DHT22;20121;51.910;8.406;2023-02-18T12:12:22;9.60;99.90
33815;DHT22;20121;51.910;8.406;2023-02-18T12:14:49;9.50;99.90
33815;DHT22;20121;51.910;8.406;2023-02-18T12:23:47;9.70;99.90
33815;DHT22;20121;51.910;8.406;2023-02-18T12:26:17;9.70;99.90
33815;DHT22;20121;51.910;8.406;2023-02-18T12:29:04;9.60;99.90
33815;DHT22;20121;51.910;8.406;2023-02-18T12:37:21;9.60;99.90
33815;DHT22;20121;51.910;8.406;2023-02-18T12:42:56;9.60;99.90
33815;DHT22;20121;51.910;8.406;2023-02-18T12:45:38;9.60;99.90
33815;DHT22;20121;51.910;8.406;2023-02-18T12:51:30;9.60;99.90
33815;DHT22;20121;51.910;8.406;2023-02-18T12:56:44;9.60;99.90
33815;DHT22;20121;51.910;8.406;2023-02-18T12:59:45;9.60;99.90
33815;DHT22;20121;51.910;8.406;2023-02-18T13:02:35;9.50;99.90
33815;DHT22;20121;51.910;8.406;2023-02-18T13:05:24;9.60;99.90
33815;DHT22;20121;51.910;8.406;2023-02-18T13:08:08;9.70;99.90
33815;DHT22;20121;51.910;8.406;2023-02-18T13:10:48;9.60;99.90
33815;DHT22;20121;51.910;8.406;2023-02-18T13:13:28;9.60;99.90
33815;DHT22;20121;51.910;8.406;2023-02-18T13:16:02;10.20;99.90
33815;DHT22;20121;51.910;8.406;2023-02-18T13:18:38;9.20;99.90
33815;DHT22;20121;51.910;8.406;2023-02-18T13:21:15;9.80;99.90
33815;DHT22;20121;51.910;8.406;2023-02-18T13:26:27;9.50;99.90
33815;DHT22;20121;51.910;8.406;2023-02-18T13:47:40;10.10;99.90
33815;DHT22;20121;51.910;8.406;2023-02-18T13:52:51;9.60;99.90
33815;DHT22;20121;51.910;8.406;2023-02-18T13:55:25;9.50;99.90
33815;DHT22;20121;51.910;8.406;2023-02-18T13:57:55;9.50;99.90
33815;DHT22;20121;51.910;8.406;2023-02-18T14:00:32;9.60;99.90
33815;DHT22;20121;51.910;8.406;2023-02-18T14:03:16;9.90;99.90
33815;DHT22;20121;51.910;8.406;2023-02-18T14:05:43;9.70;99.90
33815;DHT22;20121;51.910;8.406;2023-02-18T14:08:30;9.70;99.90
33815;DHT22;20121;51.910;8.406;2023-02-18T14:11:23;9.60;99.90
33815;DHT22;20121;51.910;8.406;2023-02-18T14:16:19;9.50;99.90
33815;DHT22;20121;51.910;8.406;2023-02-18T14:48:36;9.80;99.90
33815;DHT22;20121;51.910;8.406;2023-02-18T14:51:04;9.90;99.90
33815;DHT22;20121;51.910;8.406;2023-02-18T14:53:30;9.80;99.90
33815;DHT22;20121;51.910;8.406;2023-02-18T14:56:01;9.80;99.90
33815;DHT22;20121;51.910;8.406;2023-02-18T14:58:35;10.00;99.90
33815;DHT22;20121;51.910;8.406;2023-02-18T15:01:29;9.80;99.90
33815;DHT22;20121;51.910;8.406;2023-02-18T15:03:55;10.00;99.90
33815;DHT22;20121;51.910;8.406;2023-02-18T15:06:23;10.00;99.90
33815;DHT22;20121;51.910;8.406;2023-02-18T15:08:49;9.70;99.90
33815;DHT22;20121;51.910;8.406;2023-02-18T15:11:14;10.50;99.90
33815;DHT22;20121;51.910;8.406;2023-02-18T15:13:42;9.90;99.90
33815;DHT22;20121;51.910;8.406;2023-02-18T15:16:26;10.30;99.90
33815;DHT22;20121;51.910;8.406;2023-02-18T15:19:05;10.30;99.90
33815;DHT22;20121;51.910;8.406;2023-02-18T15:21:37;9.80;99.90
33815;DHT22;20121;51.910;8.406;2023-02-18T15:26:45;10.00;99.90
33815;DHT22;20121;51.910;8.406;2023-02-18T15:29:22;9.90;99.90
33815;DHT22;20121;51.910;8.406;2023-02-18T15:31:49;10.00;99.90
33815;DHT22;20121;51.910;8.406;2023-02-18T15:34:38;10.00;99.90
33815;DHT22;20121;51.910;8.406;2023-02-18T15:37:11;10.30;99.90
33815;DHT22;20121;51.910;8.406;2023-02-18T15:39:38;9.90;99.90
33815;DHT22;20121;51.910;8.406;2023-02-18T15:44:37;10.20;99.90
33815;DHT22;20121;51.910;8.406;2023-02-18T15:47:09;10.10;99.90
33815;DHT22;20121;51.910;8.406;2023-02-18T15:49:37;10.50;99.90
33815;DHT22;20121;51.910;8.406;2023-02-18T15:52:04;10.20;99.90
33815;DHT22;20121;51.910;8.406;2023-02-18T15:54:31;9.90;99.90
33815;DHT22;20121;51.910;8.406;2023-02-18T15:57:00;10.00;99.90
33815;DHT22;20121;51.910;8.406;2023-02-18T15:59:30;10.10;99.90
33815;DHT22;20121;51.910;8.406;2023-02-18T16:02:18;9.90;99.90
33815;DHT22;20121;51.910;8.406;2023-02-18T16:04:50;10.10;99.90
33815;DHT22;20121;51.910;8.406;2023-02-18T16:07:26;9.90;99.90
33815;DHT22;20121;51.910;8.406;2023-02-18T16:10:19;10.00;99.90
33815;DHT22;20121;51.910;8.406;2023-02-18T16:12:49;10.00;99.90
33815;DHT22;20121;51.910;8.406;2023-02-18T16:15:23;10.00;99.90
33815;DHT22;20121;51.910;8.406;2023-02-18T16:17:50;9.90;99.90
33815;DHT22;20121;51.910;8.406;2023-02-18T16:22:49;10.00;99.90
33815;DHT22;20121;51.910;8.406;2023-02-18T16:25:25;10.00;99.90
33815;DHT22;20121;51.910;8.406;2023-02-18T16:30:25;10.00;99.90
33815;DHT22;20121;51.910;8.406;2023-02-18T16:32:52;10.20;99.90
33815;DHT22;20121;51.910;8.406;2023-02-18T16:35:20;9.80;99.90
33815;DHT22;20121;51.910;8.406;2023-02-18T16:37:46;9.90;99.90
33815;DHT22;20121;51.910;8.406;2023-02-18T16:40:35;10.10;99.90
33815;DHT22;20121;51.910;8.406;2023-02-18T16:43:22;10.00;99.90
33815;DHT22;20121;51.910;8.406;2023-02-18T16:45:54;9.90;99.90
33815;DHT22;20121;51.910;8.406;2023-02-18T16:48:31;10.00;99.90
33815;DHT22;20121;51.910;8.406;2023-02-18T16:51:03;10.10;99.90
33815;DHT22;20121;51.910;8.406;2023-02-18T16:53:30;10.10;99.90
33815;DHT22;20121;51.910;8.406;2023-02-18T16:55:55;10.20;99.90
33815;DHT22;20121;51.910;8.406;2023-02-18T16:58:21;10.10;99.90
33815;DHT22;20121;51.910;8.406;2023-02-18T17:00:48;10.00;99.90
33815;DHT22;20121;51.910;8.406;2023-02-18T17:03:15;10.80;99.90
33815;DHT22;20121;51.910;8.406;2023-02-18T17:05:41;10.50;99.90
33815;DHT22;20121;51.910;8.406;2023-02-18T17:08:21;10.00;99.90
33815;DHT22;20121;51.910;8.406;2023-02-18T17:10:51;10.10;99.90
33815;DHT22;20121;51.910;8.406;2023-02-18T17:13:23;9.90;99.90
33815;DHT22;20121;51.910;8.406;2023-02-18T17:15:51;10.70;99.90
33815;DHT22;20121;51.910;8.406;2023-02-18T17:18:17;10.00;99.90
33815;DHT22;20121;51.910;8.406;2023-02-18T17:20:43;10.40;99.90
33815;DHT22;20121;51.910;8.406;2023-02-18T17:23:13;9.90;99.90
33815;DHT22;20121;51.910;8.406;2023-02-18T17:25:40;9.60;99.90
33815;DHT22;20121;51.910;8.406;2023-02-18T17:28:06;9.90;99.90
33815;DHT22;20121;51.910;8.406;2023-02-18T17:30:36;10.30;99.90
33815;DHT22;20121;51.910;8.406;2023-02-18T17:33:03;11.00;99.90
33815;DHT22;20121;51.910;8.406;2023-02-18T17:35:29;9.90;99.90
33815;DHT22;20121;51.910;8.406;2023-02-18T17:37:55;9.90;99.90
33815;DHT22;20121;51.910;8.406;2023-02-18T17:40:25;9.90;99.90
33815;DHT22;20121;51.910;8.406;2023-02-18T17:42:53;9.90;99.90
33815;DHT22;20121;51.910;8.406;2023-02-18T17:47:57;10.00;99.90
33815;DHT22;20121;51.910;8.406;2023-02-18T17:52:49;9.90;99.90
33815;DHT22;20121;51.910;8.406;2023-02-18T17:55:20;10.20;99.90
33815;DHT22;20121;51.910;8.406;2023-02-18T17:57:47;9.70;99.90
33815;DHT22;20121;51.910;8.406;2023-02-18T18:00:16;9.80;99.90
33815;DHT22;20121;51.910;8.406;2023-02-18T18:02:42;9.90;99.90
33815;DHT22;20121;51.910;8.406;2023-02-18T18:05:36;9.80;99.90
33815;DHT22;20121;51.910;8.406;2023-02-18T18:08:03;9.70;99.90
33815;DHT22;20121;51.910;8.406;2023-02-18T18:10:32;10.00;99.90
33815;DHT22;20121;51.910;8.406;2023-02-18T18:13:02;9.60;99.90
33815;DHT22;20121;51.910;8.406;2023-02-18T18:15:34;9.80;99.90
33815;DHT22;20121;51.910;8.406;2023-02-18T18:18:00;10.10;99.90
33815;DHT22;20121;51.910;8.406;2023-02-18T18:20:28;9.80;99.90
33815;DHT22;20121;51.910;8.406;2023-02-18T18:22:56;9.70;99.90
33815;DHT22;20121;51.910;8.406;2023-02-18T18:27:52;9.80;99.90
33815;DHT22;20121;51.910;8.406;2023-02-18T18:30:23;9.80;99.90
33815;DHT22;20121;51.910;8.406;2023-02-18T18:32:49;9.90;99.90
33815;DHT22;20121;51.910;8.406;2023-02-18T18:35:28;9.80;99.90
33815;DHT22;20121;51.910;8.406;2023-02-18T18:37:54;9.90;99.90
33815;DHT22;20121;51.910;8.406;2023-02-18T18:40:23;10.20;99.90
33815;DHT22;20121;51.910;8.406;2023-02-18T18:42:50;10.10;99.90
33815;DHT22;20121;51.910;8.406;2023-02-18T18:45:21;9.80;99.90